Time;durP1;ratioP1;P1;durP2;ratioP2;P2;SDS_P1;SDS_P2;PMS_P1;PMS_P2;Temp;Humidity;BMP_temperature;BMP_pressure;BME280_temperature;BME280_humidity;BME280_pressure;Samples;Min_cycle;Max_cycle;Signal;HPM_P1;HPM_P2
2022/01/31 00:01:47;;;;;;;13.70;4.55;;;2.80;99.90;;;;;;5118438;27;20256;-48
2022/01/31 00:04:16;;;;;;;8.65;3.00;;;2.90;99.90;;;;;;5118394;27;20199;-47
2022/01/31 00:06:48;;;;;;;7.00;2.38;;;2.80;99.90;;;;;;5115997;27;20227;-47
2022/01/31 00:09:17;;;;;;;11.23;3.00;;;2.90;99.90;;;;;;5116264;27;20227;-47
2022/01/31 00:11:55;;;;;;;11.32;5.47;;;2.80;99.90;;;;;;5117088;27;20199;-48
2022/01/31 00:14:33;;;;;;;5.95;2.65;;;2.80;99.90;;;;;;5120337;27;20201;-49
2022/01/31 00:17:01;;;;;;;8.02;3.00;;;2.60;99.90;;;;;;5117228;28;20261;-49
2022/01/31 00:19:29;;;;;;;13.25;4.50;;;2.60;99.90;;;;;;5117609;27;20207;-48
2022/01/31 00:21:57;;;;;;;6.55;2.70;;;2.60;99.90;;;;;;5124517;27;20205;-48
2022/01/31 00:24:24;;;;;;;8.27;2.55;;;2.70;99.90;;;;;;5118059;27;20202;-50
2022/01/31 00:26:52;;;;;;;10.93;2.97;;;2.70;99.90;;;;;;5127146;27;20234;-49
2022/01/31 00:29:19;;;;;;;8.95;2.63;;;2.60;99.90;;;;;;5136296;27;20266;-46
2022/01/31 00:31:47;;;;;;;9.35;2.40;;;2.60;99.90;;;;;;5141479;27;20209;-48
2022/01/31 00:34:14;;;;;;;6.95;2.72;;;2.70;99.90;;;;;;5141782;27;20193;-47
2022/01/31 00:36:42;;;;;;;8.63;3.25;;;2.50;99.90;;;;;;5141126;27;20589;-47
2022/01/31 00:39:09;;;;;;;12.30;4.35;;;2.50;99.90;;;;;;5141757;27;20483;-48
2022/01/31 00:41:36;;;;;;;16.95;2.47;;;2.50;99.90;;;;;;5141268;27;20328;-48
2022/01/31 00:44:29;;;;;;;5.82;2.72;;;2.60;99.90;;;;;;5141083;27;20206;-47
2022/01/31 00:46:59;;;;;;;14.52;3.90;;;2.50;99.90;;;;;;5141453;28;20262;-48
2022/01/31 00:51:59;;;;;;;9.50;1.98;;;2.50;99.90;;;;;;5141632;28;20369;-48
2022/01/31 00:54:26;;;;;;;10.98;3.50;;;2.40;99.90;;;;;;5143683;28;20193;-51
2022/01/31 00:56:55;;;;;;;5.45;2.38;;;2.40;99.90;;;;;;5150131;28;20234;-53
2022/01/31 00:59:23;;;;;;;6.30;2.08;;;2.40;99.90;;;;;;5151750;27;20218;-47
2022/01/31 01:01:50;;;;;;;6.50;2.60;;;2.50;99.90;;;;;;5140978;28;20365;-48
2022/01/31 01:04:17;;;;;;;7.03;2.95;;;2.30;99.90;;;;;;5140859;28;20531;-47
2022/01/31 01:06:45;;;;;;;14.48;3.13;;;2.30;99.90;;;;;;5141031;28;20261;-48
2022/01/31 01:09:12;;;;;;;4.93;2.05;;;2.30;99.90;;;;;;5140561;27;20208;-50
2022/01/31 01:11:40;;;;;;;11.30;3.35;;;2.30;99.90;;;;;;5140631;27;20228;-46
2022/01/31 01:14:07;;;;;;;21.25;3.80;;;2.30;99.90;;;;;;5140548;28;20451;-51
2022/01/31 01:16:35;;;;;;;10.45;2.83;;;2.30;99.90;;;;;;5141011;27;20213;-49
2022/01/31 01:19:03;;;;;;;3.63;1.92;;;2.30;99.90;;;;;;5140901;27;20394;-46
2022/01/31 01:21:31;;;;;;;6.15;2.47;;;2.40;99.90;;;;;;5141188;28;20411;-48
2022/01/31 01:23:58;;;;;;;6.50;2.33;;;2.40;99.90;;;;;;5140950;28;20225;-49
2022/01/31 01:26:26;;;;;;;10.13;2.75;;;2.30;99.90;;;;;;5140838;27;20220;-51
2022/01/31 01:28:53;;;;;;;9.13;2.83;;;2.40;99.90;;;;;;5140720;27;20218;-49
2022/01/31 01:31:20;;;;;;;4.63;2.40;;;2.50;99.90;;;;;;5140805;27;20216;-48
2022/01/31 01:33:47;;;;;;;18.35;4.03;;;2.60;99.90;;;;;;5141426;27;20237;-46
2022/01/31 01:36:15;;;;;;;7.50;2.83;;;2.60;99.90;;;;;;5144965;27;20221;-47
2022/01/31 01:38:43;;;;;;;7.50;3.28;;;2.70;99.90;;;;;;5144748;27;20238;-49
2022/01/31 01:41:10;;;;;;;8.80;3.50;;;2.80;99.90;;;;;;5144619;27;20197;-48
2022/01/31 01:43:38;;;;;;;11.07;2.70;;;2.80;99.90;;;;;;5144355;27;20205;-47
2022/01/31 01:46:05;;;;;;;10.02;3.50;;;2.90;99.90;;;;;;5144376;27;20217;-47
2022/01/31 01:48:33;;;;;;;10.30;3.15;;;2.90;99.90;;;;;;5144175;27;20221;-48
2022/01/31 01:51:02;;;;;;;13.45;4.00;;;2.90;99.90;;;;;;5144162;27;20199;-49
2022/01/31 01:53:30;;;;;;;14.20;2.83;;;2.80;99.90;;;;;;5144080;27;20415;-47
2022/01/31 01:55:58;;;;;;;12.02;2.75;;;2.80;99.90;;;;;;5143264;27;20439;-48
2022/01/31 01:58:29;;;;;;;9.98;3.15;;;2.80;99.90;;;;;;5144318;27;20198;-49
2022/01/31 02:00:59;;;;;;;14.70;2.47;;;2.70;99.90;;;;;;5144210;27;20212;-49
2022/01/31 02:03:27;;;;;;;3.67;2.25;;;2.70;99.90;;;;;;5152195;27;20205;-51
2022/01/31 02:05:56;;;;;;;5.53;2.45;;;2.70;99.90;;;;;;5147838;27;20217;-47
2022/01/31 02:08:27;;;;;;;8.73;2.97;;;2.90;99.90;;;;;;5144355;27;20264;-47
2022/01/31 02:10:54;;;;;;;10.60;3.38;;;3.10;99.90;;;;;;5143549;27;20193;-49
2022/01/31 02:13:24;;;;;;;9.23;4.35;;;3.20;99.90;;;;;;5143982;27;20239;-51
2022/01/31 02:15:52;;;;;;;10.52;1.98;;;3.10;99.90;;;;;;5126192;27;20298;-51
2022/01/31 02:18:24;;;;;;;4.60;2.80;;;3.20;99.90;;;;;;5124978;28;20232;-47
2022/01/31 02:20:51;;;;;;;5.78;2.95;;;3.10;99.90;;;;;;5128343;28;20203;-53
2022/01/31 02:23:21;;;;;;;29.27;2.83;;;3.00;99.90;;;;;;5131698;28;20195;-54
2022/01/31 02:25:53;;;;;;;13.65;4.05;;;3.10;99.90;;;;;;5131272;28;20214;-49
2022/01/31 02:28:22;;;;;;;16.02;2.45;;;3.00;99.90;;;;;;5130527;28;20203;-50
2022/01/31 02:30:50;;;;;;;8.90;2.20;;;3.10;99.90;;;;;;5130746;28;20205;-46
2022/01/31 02:33:19;;;;;;;15.05;2.25;;;3.10;99.90;;;;;;5130572;28;20199;-45
2022/01/31 02:35:48;;;;;;;15.30;2.30;;;3.10;99.90;;;;;;5130745;28;20215;-47
2022/01/31 02:38:16;;;;;;;7.03;2.65;;;3.10;99.90;;;;;;5127221;28;20544;-47
2022/01/31 02:40:44;;;;;;;4.15;1.77;;;3.20;99.90;;;;;;5123086;28;20220;-51
2022/01/31 02:43:30;;;;;;;5.82;2.83;;;3.20;99.90;;;;;;5123017;28;20201;-50
2022/01/31 02:45:58;;;;;;;10.73;3.42;;;3.30;99.90;;;;;;5122615;28;20234;-47
2022/01/31 02:48:28;;;;;;;4.20;2.25;;;3.30;99.90;;;;;;5122574;28;20203;-47
2022/01/31 02:50:56;;;;;;;7.38;2.75;;;3.30;99.90;;;;;;5122514;28;20238;-53
2022/01/31 02:53:30;;;;;;;7.35;3.53;;;3.20;99.90;;;;;;5122317;28;20202;-48
2022/01/31 02:56:01;;;;;;;6.38;2.55;;;3.20;99.90;;;;;;5122728;28;20215;-52
2022/01/31 02:58:29;;;;;;;7.13;2.72;;;3.00;99.90;;;;;;5122708;28;20198;-49
2022/01/31 03:00:57;;;;;;;4.68;1.63;;;3.00;99.90;;;;;;5122460;28;20202;-52
2022/01/31 03:03:25;;;;;;;8.50;4.05;;;3.00;99.90;;;;;;5122786;28;20266;-49
2022/01/31 03:05:53;;;;;;;3.22;1.83;;;3.00;99.90;;;;;;5117500;28;20480;-50
2022/01/31 03:08:20;;;;;;;9.13;3.78;;;3.00;99.90;;;;;;5128970;27;20208;-49
2022/01/31 03:10:47;;;;;;;9.93;2.00;;;3.00;99.90;;;;;;5139858;27;20199;-50
2022/01/31 03:13:14;;;;;;;5.22;2.35;;;3.00;99.90;;;;;;5143329;27;20422;-50
2022/01/31 03:15:42;;;;;;;9.18;2.05;;;3.00;99.90;;;;;;5142446;27;20214;-47
2022/01/31 03:18:09;;;;;;;8.98;3.15;;;3.10;99.90;;;;;;5142544;27;20201;-49
2022/01/31 03:20:37;;;;;;;9.27;3.95;;;3.20;99.90;;;;;;5142517;27;20204;-49
2022/01/31 03:23:04;;;;;;;7.57;2.60;;;3.30;99.90;;;;;;5143016;27;20350;-52
2022/01/31 03:25:33;;;;;;;10.65;2.95;;;3.10;99.90;;;;;;5142648;27;20197;-53
2022/01/31 03:28:01;;;;;;;4.95;1.67;;;3.20;99.90;;;;;;5142276;27;20197;-50
2022/01/31 03:30:29;;;;;;;14.35;3.15;;;3.20;99.90;;;;;;5142288;27;20242;-47
2022/01/31 03:32:56;;;;;;;16.10;2.95;;;3.20;99.90;;;;;;5142078;27;20201;-47
2022/01/31 03:35:24;;;;;;;5.75;2.10;;;3.20;99.90;;;;;;5142551;27;20200;-50
2022/01/31 03:37:52;;;;;;;13.07;2.47;;;3.20;99.90;;;;;;5142137;27;20520;-48
2022/01/31 03:40:19;;;;;;;11.77;3.22;;;3.20;99.90;;;;;;5142377;27;20205;-49
2022/01/31 03:42:47;;;;;;;14.80;3.28;;;3.30;99.90;;;;;;5142532;27;20516;-50
2022/01/31 03:45:15;;;;;;;11.63;2.55;;;3.30;99.90;;;;;;5147905;27;20255;-50
2022/01/31 03:47:46;;;;;;;13.13;2.47;;;3.30;99.90;;;;;;5146297;27;20210;-46
2022/01/31 03:50:18;;;;;;;13.93;3.55;;;3.30;99.90;;;;;;5143472;27;20226;-46
2022/01/31 03:52:46;;;;;;;3.05;2.28;;;3.20;99.90;;;;;;5141642;27;20244;-48
2022/01/31 03:55:15;;;;;;;8.02;2.85;;;3.30;99.90;;;;;;5142420;27;20224;-51
2022/01/31 03:57:43;;;;;;;10.23;3.78;;;3.20;99.90;;;;;;5141529;27;20195;-51
2022/01/31 04:00:12;;;;;;;7.45;2.70;;;3.30;99.90;;;;;;5142023;27;20198;-44
2022/01/31 04:02:40;;;;;;;14.43;2.63;;;3.20;99.90;;;;;;5142458;27;20206;-49
2022/01/31 04:05:08;;;;;;;7.50;2.75;;;3.20;99.90;;;;;;5142111;27;20195;-48
2022/01/31 04:07:36;;;;;;;14.95;3.38;;;3.20;99.90;;;;;;5142778;27;20218;-49
2022/01/31 04:10:05;;;;;;;13.57;4.60;;;3.20;99.90;;;;;;5141954;27;20251;-47
2022/01/31 04:12:32;;;;;;;7.80;3.38;;;3.30;99.90;;;;;;5141701;27;20525;-51
2022/01/31 04:15:00;;;;;;;9.88;3.70;;;3.30;99.90;;;;;;5141954;27;20239;-47
2022/01/31 04:17:27;;;;;;;7.13;2.40;;;3.30;99.90;;;;;;5141744;27;20218;-48
2022/01/31 04:19:54;;;;;;;9.90;3.65;;;3.30;99.90;;;;;;5141825;27;20203;-47
2022/01/31 04:22:25;;;;;;;7.15;3.05;;;3.30;99.90;;;;;;5141998;27;20200;-47
2022/01/31 04:24:58;;;;;;;7.95;2.10;;;3.30;99.90;;;;;;5141410;27;20299;-47
2022/01/31 04:27:31;;;;;;;14.43;2.92;;;3.40;99.90;;;;;;5141660;27;20225;-50
2022/01/31 04:29:59;;;;;;;5.63;2.85;;;3.40;99.90;;;;;;5141452;27;20232;-49
2022/01/31 04:32:26;;;;;;;9.32;3.47;;;3.40;99.90;;;;;;5142209;27;20195;-46
2022/01/31 04:34:53;;;;;;;7.40;2.30;;;3.30;99.90;;;;;;5141809;27;20212;-47
2022/01/31 04:37:21;;;;;;;9.27;3.22;;;3.30;99.90;;;;;;5141376;27;20213;-48
2022/01/31 04:39:48;;;;;;;7.30;2.72;;;3.30;99.90;;;;;;5141017;27;20216;-50
2022/01/31 04:42:15;;;;;;;17.70;3.35;;;3.30;99.90;;;;;;5141405;27;20203;-52
2022/01/31 04:44:42;;;;;;;6.75;4.22;;;3.20;99.90;;;;;;5141340;27;20234;-50
2022/01/31 04:47:10;;;;;;;5.65;2.55;;;3.30;99.90;;;;;;5140506;27;20252;-48
2022/01/31 04:49:37;;;;;;;3.25;2.55;;;3.40;99.90;;;;;;5141493;28;20217;-48
2022/01/31 04:52:04;;;;;;;7.28;3.25;;;3.40;99.90;;;;;;5141383;28;20225;-47
2022/01/31 04:54:32;;;;;;;12.70;3.22;;;3.30;99.90;;;;;;5141616;27;20194;-50
2022/01/31 04:56:59;;;;;;;11.40;3.63;;;3.20;99.90;;;;;;5140926;28;20274;-51
2022/01/31 04:59:26;;;;;;;8.55;4.35;;;3.20;99.90;;;;;;5141298;28;20198;-51
2022/01/31 05:01:53;;;;;;;11.13;2.95;;;3.30;99.90;;;;;;5140710;27;20205;-51
2022/01/31 05:04:21;;;;;;;13.80;4.38;;;3.30;99.90;;;;;;5141068;28;20201;-48
2022/01/31 05:06:49;;;;;;;13.75;3.90;;;3.40;99.90;;;;;;5140760;27;20230;-48
2022/01/31 05:09:17;;;;;;;9.68;2.85;;;3.40;99.90;;;;;;5142140;27;20413;-51
2022/01/31 05:11:45;;;;;;;10.02;4.20;;;3.40;99.90;;;;;;5144892;27;20194;-49
2022/01/31 05:14:15;;;;;;;7.82;2.80;;;3.50;99.90;;;;;;5145620;27;20523;-46
2022/01/31 05:16:44;;;;;;;6.82;2.65;;;3.40;99.90;;;;;;5144950;27;20215;-47
2022/01/31 05:19:12;;;;;;;10.68;4.30;;;3.40;99.90;;;;;;5145730;27;20244;-50
2022/01/31 05:21:39;;;;;;;19.95;4.20;;;3.30;99.90;;;;;;5145515;27;20244;-48
2022/01/31 05:24:06;;;;;;;13.82;2.95;;;3.40;99.90;;;;;;5145722;27;20202;-51
2022/01/31 05:26:34;;;;;;;10.27;3.03;;;3.50;99.90;;;;;;5153062;27;20229;-53
2022/01/31 05:29:02;;;;;;;7.63;2.90;;;3.50;99.90;;;;;;5149659;27;20203;-49
2022/01/31 05:31:30;;;;;;;9.82;2.97;;;3.40;99.90;;;;;;5146164;27;20235;-46
2022/01/31 05:33:57;;;;;;;9.07;2.55;;;3.30;99.90;;;;;;5144828;27;20209;-46
2022/01/31 05:36:25;;;;;;;9.75;3.25;;;3.30;99.90;;;;;;5145378;27;20210;-48
2022/01/31 05:38:53;;;;;;;6.90;3.88;;;3.30;99.90;;;;;;5145445;27;20195;-52
2022/01/31 05:41:20;;;;;;;9.55;3.00;;;3.30;99.90;;;;;;5144913;27;20390;-47
2022/01/31 05:43:48;;;;;;;10.45;3.28;;;3.40;99.90;;;;;;5144880;27;20254;-50
2022/01/31 05:46:15;;;;;;;5.72;3.88;;;3.30;99.90;;;;;;5125877;27;20406;-51
2022/01/31 05:48:43;;;;;;;13.48;3.05;;;3.30;99.90;;;;;;5129807;27;20220;-46
2022/01/31 05:51:22;;;;;;;16.30;3.55;;;3.30;99.90;;;;;;5144275;27;20229;-50
2022/01/31 05:53:50;;;;;;;10.57;3.30;;;3.30;99.90;;;;;;5144539;27;20207;-47
2022/01/31 05:56:18;;;;;;;6.78;3.95;;;3.20;99.90;;;;;;5143911;27;20218;-48
2022/01/31 05:58:46;;;;;;;13.45;3.80;;;3.30;99.90;;;;;;5144569;27;20193;-50
2022/01/31 06:01:13;;;;;;;7.95;3.22;;;3.30;99.90;;;;;;5144459;27;20206;-47
2022/01/31 06:03:41;;;;;;;11.40;2.78;;;3.40;99.90;;;;;;5144356;27;20374;-52
2022/01/31 06:06:08;;;;;;;7.88;3.65;;;3.50;99.90;;;;;;5143717;27;20568;-51
2022/01/31 06:08:35;;;;;;;7.28;4.05;;;3.50;99.90;;;;;;5143990;27;20198;-53
2022/01/31 06:11:02;;;;;;;9.80;3.10;;;3.50;99.90;;;;;;5143998;27;20225;-52
2022/01/31 06:13:33;;;;;;;14.80;3.95;;;3.40;99.90;;;;;;5126310;27;20239;-50
2022/01/31 06:16:00;;;;;;;7.80;2.42;;;3.50;99.90;;;;;;5128573;27;20226;-51
2022/01/31 06:18:28;;;;;;;14.00;3.42;;;3.40;99.90;;;;;;5120045;27;20194;-46
2022/01/31 06:20:55;;;;;;;14.88;3.65;;;3.40;99.90;;;;;;5122096;27;20204;-49
2022/01/31 06:23:23;;;;;;;20.38;5.40;;;3.30;99.90;;;;;;5117284;27;20238;-48
2022/01/31 06:25:50;;;;;;;11.82;4.15;;;3.40;99.90;;;;;;5121592;27;20268;-49
2022/01/31 06:28:17;;;;;;;13.35;3.25;;;3.40;99.90;;;;;;5121949;27;20400;-47
2022/01/31 06:30:45;;;;;;;10.32;4.15;;;3.40;99.90;;;;;;5120285;27;20223;-50
2022/01/31 06:33:16;;;;;;;13.85;3.83;;;3.60;99.90;;;;;;5116807;28;20198;-48
2022/01/31 06:35:44;;;;;;;5.78;3.90;;;3.50;99.90;;;;;;5114655;27;20217;-47
2022/01/31 06:38:11;;;;;;;6.00;3.17;;;3.50;99.90;;;;;;5122943;27;20198;-48
2022/01/31 06:40:39;;;;;;;12.90;3.35;;;3.40;99.90;;;;;;5118997;27;20228;-48
2022/01/31 06:43:07;;;;;;;6.35;3.25;;;3.50;99.90;;;;;;5130167;27;20421;-46
2022/01/31 06:45:35;;;;;;;23.52;5.20;;;3.60;99.90;;;;;;5128495;27;20199;-52
2022/01/31 06:48:05;;;;;;;10.60;3.72;;;3.70;99.90;;;;;;5122311;27;20203;-47
2022/01/31 06:50:32;;;;;;;8.90;3.58;;;3.60;99.90;;;;;;5116128;27;20516;-50
2022/01/31 06:53:01;;;;;;;8.32;2.78;;;3.50;99.90;;;;;;5120543;27;20471;-51
2022/01/31 06:55:29;;;;;;;9.73;2.60;;;3.60;99.90;;;;;;5116563;27;20203;-47
2022/01/31 06:57:57;;;;;;;8.43;3.50;;;3.70;99.90;;;;;;5123783;27;20208;-46
2022/01/31 07:00:25;;;;;;;9.30;4.30;;;3.70;99.90;;;;;;5114262;27;20452;-48
2022/01/31 07:02:52;;;;;;;23.67;3.88;;;3.70;99.90;;;;;;5119136;27;20269;-48
2022/01/31 07:05:20;;;;;;;6.43;1.73;;;3.70;99.90;;;;;;5120016;27;20233;-51
2022/01/31 07:07:48;;;;;;;15.98;4.00;;;3.80;99.90;;;;;;5133408;27;20241;-52
2022/01/31 07:10:16;;;;;;;2.67;2.17;;;3.90;99.90;;;;;;5124092;27;20224;-47
2022/01/31 07:12:51;;;;;;;6.30;2.13;;;3.80;99.90;;;;;;5120248;28;20196;-51
2022/01/31 07:15:19;;;;;;;7.25;3.13;;;3.80;99.90;;;;;;5122621;28;20196;-47
2022/01/31 07:17:47;;;;;;;6.03;2.47;;;3.90;99.90;;;;;;5115635;28;20199;-49
2022/01/31 07:20:23;;;;;;;10.73;3.85;;;4.00;99.90;;;;;;5122103;27;20424;-50
2022/01/31 07:22:57;;;;;;;20.63;3.53;;;3.90;99.90;;;;;;5120437;28;20221;-49
2022/01/31 07:25:36;;;;;;;14.20;3.10;;;4.10;99.90;;;;;;5121797;28;20468;-49
2022/01/31 07:28:16;;;;;;;11.02;3.63;;;4.10;99.90;;;;;;5121653;28;20207;-48
2022/01/31 07:30:47;;;;;;;21.50;5.22;;;4.10;99.90;;;;;;5121971;28;20548;-49
2022/01/31 07:33:15;;;;;;;6.90;2.50;;;4.10;99.90;;;;;;5121864;28;20224;-48
2022/01/31 07:35:43;;;;;;;13.65;4.45;;;4.20;99.90;;;;;;5124062;28;20219;-47
2022/01/31 07:38:11;;;;;;;9.70;4.20;;;4.20;99.90;;;;;;5120484;28;20205;-47
2022/01/31 07:40:39;;;;;;;8.48;3.53;;;4.20;99.90;;;;;;5117669;27;20204;-50
2022/01/31 07:43:07;;;;;;;9.35;2.78;;;4.20;99.90;;;;;;5101062;28;20510;-50
2022/01/31 07:45:34;;;;;;;16.92;3.63;;;4.10;99.90;;;;;;5101271;28;20203;-48
2022/01/31 07:48:01;;;;;;;9.18;2.53;;;4.10;99.90;;;;;;5107524;27;20209;-50
2022/01/31 07:50:31;;;;;;;6.97;3.00;;;4.20;99.90;;;;;;5104628;28;20270;-51
2022/01/31 07:52:59;;;;;;;12.93;3.47;;;4.20;99.90;;;;;;5108152;28;20204;-51
2022/01/31 07:55:26;;;;;;;7.57;3.05;;;4.20;99.90;;;;;;5115963;28;20192;-48
2022/01/31 07:57:53;;;;;;;16.75;3.60;;;4.20;99.90;;;;;;5121378;28;20521;-47
2022/01/31 08:00:40;;;;;;;15.75;5.93;;;4.20;99.90;;;;;;5102870;27;20191;-50
2022/01/31 08:03:08;;;;;;;9.95;3.65;;;4.20;99.90;;;;;;5114648;27;20481;-47
2022/01/31 08:05:35;;;;;;;12.00;3.92;;;4.30;99.90;;;;;;5113947;27;20201;-53
2022/01/31 08:08:03;;;;;;;28.10;5.20;;;4.40;99.90;;;;;;5119859;28;20526;-51
2022/01/31 08:10:34;;;;;;;7.47;3.83;;;4.60;99.90;;;;;;5121453;28;20292;-46
2022/01/31 08:13:04;;;;;;;8.80;2.95;;;4.60;99.90;;;;;;5121103;28;20212;-50
2022/01/31 08:15:34;;;;;;;6.15;3.28;;;4.70;99.90;;;;;;5121102;28;20219;-49
2022/01/31 08:18:01;;;;;;;26.77;5.57;;;4.80;99.90;;;;;;5120962;28;20302;-49
2022/01/31 08:20:28;;;;;;;18.20;4.55;;;5.00;99.90;;;;;;5111001;28;20215;-48
2022/01/31 08:22:59;;;;;;;18.52;4.88;;;5.10;99.90;;;;;;5130589;27;20244;-50
2022/01/31 08:25:27;;;;;;;9.98;3.10;;;5.20;99.90;;;;;;5141668;27;20208;-52
2022/01/31 08:28:00;;;;;;;17.80;5.63;;;5.30;99.90;;;;;;5141086;27;20196;-50
2022/01/31 08:30:37;;;;;;;15.77;6.07;;;5.20;99.90;;;;;;5141284;27;20216;-48
2022/01/31 08:33:13;;;;;;;24.15;7.10;;;5.20;99.90;;;;;;5140905;27;20463;-47
2022/01/31 08:35:50;;;;;;;19.05;4.68;;;5.20;99.90;;;;;;5141511;27;20441;-48
2022/01/31 08:38:18;;;;;;;16.92;4.50;;;5.30;99.90;;;;;;5140986;27;20192;-50
2022/01/31 08:40:46;;;;;;;9.93;3.72;;;5.30;99.90;;;;;;5123172;27;20238;-50
2022/01/31 08:43:16;;;;;;;14.30;6.35;;;5.50;99.90;;;;;;5136762;28;20196;-55
2022/01/31 08:45:44;;;;;;;6.55;3.55;;;5.50;99.90;;;;;;5148387;28;20224;-49
2022/01/31 08:48:15;;;;;;;15.88;4.40;;;5.50;99.90;;;;;;5120908;28;20208;-48
2022/01/31 08:50:43;;;;;;;13.68;4.15;;;5.30;99.90;;;;;;5114196;28;20220;-48
2022/01/31 08:53:10;;;;;;;10.30;3.83;;;5.30;99.90;;;;;;5132550;27;20191;-47
2022/01/31 08:56:00;;;;;;;20.20;5.18;;;5.40;99.90;;;;;;5141344;28;20205;-47
2022/01/31 08:58:28;;;;;;;9.90;4.50;;;5.70;99.90;;;;;;5141640;28;20559;-48
2022/01/31 09:00:58;;;;;;;20.55;4.57;;;5.80;99.90;;;;;;5129660;28;20213;-49
2022/01/31 09:03:41;;;;;;;14.00;4.50;;;5.70;99.90;;;;;;5108609;28;20210;-51
2022/01/31 09:06:11;;;;;;;13.73;4.05;;;5.70;99.90;;;;;;5103131;28;20220;-48
2022/01/31 09:08:40;;;;;;;16.25;5.47;;;5.80;99.90;;;;;;5105722;28;20224;-49
2022/01/31 09:11:09;;;;;;;15.05;4.20;;;6.10;99.90;;;;;;5102777;28;20233;-48
2022/01/31 09:13:36;;;;;;;21.30;6.45;;;6.10;99.90;;;;;;5105276;28;20505;-51
2022/01/31 09:16:05;;;;;;;14.32;5.13;;;5.90;99.90;;;;;;5116519;28;20227;-48
2022/01/31 09:18:33;;;;;;;15.95;6.28;;;5.90;99.90;;;;;;5128744;28;20530;-48
2022/01/31 09:21:01;;;;;;;12.07;4.50;;;5.80;99.90;;;;;;5139619;28;20207;-47
2022/01/31 09:23:29;;;;;;;12.73;4.43;;;5.80;99.90;;;;;;5140127;28;20218;-51
2022/01/31 09:25:57;;;;;;;15.73;4.80;;;5.90;99.90;;;;;;5140342;27;20220;-48
2022/01/31 09:28:26;;;;;;;11.63;5.00;;;5.90;99.90;;;;;;5125698;28;20200;-48
2022/01/31 09:30:54;;;;;;;8.68;3.95;;;5.80;99.90;;;;;;5114011;28;20269;-52
2022/01/31 09:33:25;;;;;;;19.80;5.05;;;5.50;99.90;;;;;;5120140;28;20256;-51
2022/01/31 09:35:53;;;;;;;16.25;4.18;;;5.50;99.90;;;;;;5114392;28;20224;-50
2022/01/31 09:38:23;;;;;;;11.27;4.20;;;5.60;99.90;;;;;;5116230;28;20372;-49
2022/01/31 09:40:53;;;;;;;14.95;6.38;;;5.70;99.90;;;;;;5120673;28;20398;-49
2022/01/31 09:45:59;;;;;;;12.27;4.82;;;5.50;99.90;;;;;;5116189;28;20262;-50
2022/01/31 09:51:07;;;;;;;9.13;5.50;;;5.60;99.90;;;;;;5127413;28;20245;-50
2022/01/31 09:53:52;;;;;;;16.45;4.22;;;5.50;99.90;;;;;;5134765;28;20192;-51
2022/01/31 09:56:44;;;;;;;20.08;6.13;;;5.60;99.90;;;;;;5111342;28;20297;-53
2022/01/31 09:59:13;;;;;;;14.40;7.78;;;5.50;99.90;;;;;;5123291;27;20189;-50
2022/01/31 10:01:46;;;;;;;13.07;5.53;;;5.60;99.90;;;;;;5125590;28;20542;-48
2022/01/31 10:04:18;;;;;;;11.18;5.05;;;5.70;99.90;;;;;;5120929;28;20221;-46
2022/01/31 10:06:52;;;;;;;11.00;6.10;;;5.60;99.90;;;;;;5124073;27;20216;-53
2022/01/31 10:09:22;;;;;;;11.15;4.97;;;5.80;99.90;;;;;;5125302;28;20198;-50
2022/01/31 10:12:18;;;;;;;8.70;3.85;;;6.00;99.90;;;;;;5123481;28;20224;-47
2022/01/31 10:17:38;;;;;;;15.75;5.20;;;6.00;99.90;;;;;;5123769;28;20257;-51
2022/01/31 10:20:29;;;;;;;14.80;4.70;;;6.00;99.90;;;;;;5124089;28;20194;-49
2022/01/31 10:23:10;;;;;;;15.55;4.70;;;6.20;99.90;;;;;;5129942;28;20186;-48
2022/01/31 10:25:38;;;;;;;10.95;4.50;;;6.20;99.90;;;;;;5123532;28;20544;-48
2022/01/31 10:28:11;;;;;;;13.48;6.15;;;6.30;99.90;;;;;;5123402;28;20281;-54
2022/01/31 10:30:39;;;;;;;15.80;4.78;;;6.10;99.90;;;;;;5123126;28;20221;-48
2022/01/31 10:33:09;;;;;;;16.10;6.97;;;6.20;99.90;;;;;;5122744;28;20193;-48
2022/01/31 10:35:39;;;;;;;19.15;6.68;;;6.30;99.90;;;;;;5120050;28;20276;-49
2022/01/31 10:38:12;;;;;;;18.23;6.60;;;6.10;99.90;;;;;;5121428;28;20221;-46
2022/01/31 10:57:00;;;;;;;22.20;4.85;;;6.40;99.90;;;;;;5104013;27;20251;-47
2022/01/31 10:59:37;;;;;;;14.00;5.90;;;6.30;99.90;;;;;;5104151;27;20431;-49
2022/01/31 11:02:08;;;;;;;15.13;4.50;;;6.20;99.90;;;;;;5135326;27;20491;-46
2022/01/31 11:04:38;;;;;;;12.13;8.07;;;6.30;99.90;;;;;;5144379;27;20253;-48
2022/01/31 11:07:13;;;;;;;18.58;5.90;;;6.30;99.90;;;;;;5144319;27;20604;-49
2022/01/31 11:09:45;;;;;;;12.05;4.63;;;6.50;99.90;;;;;;5144997;27;20196;-52
2022/01/31 11:12:13;;;;;;;21.27;6.10;;;6.80;99.90;;;;;;5124740;27;20237;-45
2022/01/31 11:14:43;;;;;;;12.77;6.22;;;6.80;99.90;;;;;;5127424;27;20373;-52
2022/01/31 11:17:13;;;;;;;8.90;4.60;;;6.80;99.90;;;;;;5125995;27;20285;-50
2022/01/31 11:19:49;;;;;;;10.90;4.97;;;7.10;99.90;;;;;;5133876;27;20193;-53
2022/01/31 11:22:26;;;;;;;20.67;6.47;;;7.10;99.90;;;;;;5142675;27;20232;-49
2022/01/31 11:25:14;;;;;;;10.48;4.57;;;7.10;99.90;;;;;;5142125;27;20562;-47
2022/01/31 11:27:52;;;;;;;7.88;5.10;;;7.00;99.90;;;;;;5142694;27;20222;-50
2022/01/31 11:30:21;;;;;;;22.63;8.40;;;7.10;99.90;;;;;;5142013;27;20243;-53
2022/01/31 11:32:50;;;;;;;12.32;5.63;;;7.00;99.90;;;;;;5137608;27;20238;-48
2022/01/31 11:35:19;;;;;;;19.48;5.55;;;7.20;99.90;;;;;;5119715;27;20235;-49
2022/01/31 11:37:47;;;;;;;11.55;5.78;;;7.10;99.90;;;;;;5116689;27;20388;-50
2022/01/31 11:40:16;;;;;;;15.70;5.82;;;7.00;99.90;;;;;;5136574;27;20415;-50
2022/01/31 11:42:46;;;;;;;13.07;6.13;;;7.10;99.90;;;;;;5104192;28;20213;-47
2022/01/31 11:45:29;;;;;;;19.00;6.88;;;7.00;99.90;;;;;;5108159;27;20223;-52
2022/01/31 11:47:58;;;;;;;19.80;5.35;;;7.00;99.90;;;;;;5127269;27;20213;-51
2022/01/31 11:50:28;;;;;;;28.48;6.07;;;7.00;99.90;;;;;;5140898;27;20269;-51
2022/01/31 11:53:02;;;;;;;18.02;5.10;;;7.20;99.90;;;;;;5142446;27;20361;-47
2022/01/31 11:55:35;;;;;;;17.25;5.57;;;7.30;99.90;;;;;;5141921;27;20410;-51
2022/01/31 11:58:07;;;;;;;21.63;6.53;;;7.40;99.90;;;;;;5143097;27;20221;-51
2022/01/31 12:00:40;;;;;;;16.45;4.85;;;7.70;99.90;;;;;;5147651;27;20201;-51
2022/01/31 12:03:09;;;;;;;25.25;6.20;;;7.70;99.90;;;;;;5141141;27;20578;-47
2022/01/31 12:05:40;;;;;;;18.20;5.50;;;7.60;99.90;;;;;;5141621;27;20510;-48
2022/01/31 12:08:17;;;;;;;16.33;5.20;;;7.70;99.90;;;;;;5132336;27;20207;-50
2022/01/31 12:10:52;;;;;;;8.63;4.32;;;7.60;99.90;;;;;;5123758;27;20422;-48
2022/01/31 12:13:35;;;;;;;10.73;4.13;;;7.60;99.90;;;;;;5121341;28;20439;-49
2022/01/31 12:16:24;;;;;;;9.23;4.70;;;7.50;99.90;;;;;;5120434;28;20505;-50
2022/01/31 12:19:00;;;;;;;12.38;4.38;;;7.50;99.90;;;;;;5128888;27;20201;-47
2022/01/31 12:24:34;;;;;;;15.10;5.22;;;7.40;99.90;;;;;;5141565;27;20199;-48
2022/01/31 12:27:25;;;;;;;17.17;6.80;;;7.40;99.90;;;;;;5138508;27;20437;-47
2022/01/31 12:29:56;;;;;;;15.35;6.22;;;7.70;99.90;;;;;;5107416;27;20216;-49
2022/01/31 12:32:38;;;;;;;9.95;4.20;;;7.80;99.90;;;;;;5112788;27;20217;-48
2022/01/31 12:35:10;;;;;;;10.68;4.60;;;7.90;99.90;;;;;;5116500;27;20197;-49
2022/01/31 12:37:53;;;;;;;10.88;4.50;;;7.90;99.90;;;;;;5132167;27;20391;-50
2022/01/31 12:40:29;;;;;;;20.05;5.53;;;7.80;99.90;;;;;;5141064;27;20200;-51
2022/01/31 12:45:26;;;;;;;12.18;7.43;;;7.90;99.90;;;;;;5130622;27;20269;-51
2022/01/31 12:48:09;;;;;;;19.83;6.18;;;7.80;99.90;;;;;;5127991;27;20202;-50
2022/01/31 12:50:51;;;;;;;10.10;4.68;;;7.70;99.90;;;;;;5141079;27;20401;-51
2022/01/31 12:53:58;;;;;;;9.20;4.70;;;7.70;99.90;;;;;;5141382;28;20203;-52
2022/01/31 12:56:29;;;;;;;24.98;5.05;;;7.60;99.90;;;;;;5140911;28;20328;-48
2022/01/31 12:59:15;;;;;;;5.35;3.42;;;7.30;99.90;;;;;;5141214;28;20272;-49
2022/01/31 13:01:45;;;;;;;10.40;3.70;;;7.40;99.90;;;;;;5132687;28;20206;-50
2022/01/31 13:04:14;;;;;;;10.77;4.15;;;7.80;99.90;;;;;;5111209;27;20197;-50
2022/01/31 13:06:45;;;;;;;25.27;6.07;;;7.90;99.90;;;;;;5124642;28;20212;-48
2022/01/31 13:09:16;;;;;;;18.55;4.90;;;8.20;99.90;;;;;;5129471;28;20197;-47
2022/01/31 13:11:46;;;;;;;9.55;4.55;;;8.20;99.90;;;;;;5132559;27;20224;-48
2022/01/31 13:14:25;;;;;;;13.63;4.05;;;8.20;99.90;;;;;;5124826;28;20192;-47
2022/01/31 13:17:18;;;;;;;11.65;4.32;;;8.30;99.90;;;;;;5125192;28;20213;-47
2022/01/31 13:19:58;;;;;;;13.25;4.18;;;8.30;99.90;;;;;;5140564;27;20215;-48
2022/01/31 13:22:33;;;;;;;8.07;3.80;;;8.30;99.90;;;;;;5140311;27;20203;-49
2022/01/31 13:25:08;;;;;;;11.85;3.72;;;8.40;99.90;;;;;;5140667;27;20525;-49
2022/01/31 13:27:56;;;;;;;17.55;6.05;;;8.00;99.90;;;;;;5099480;28;20190;-48
2022/01/31 13:30:30;;;;;;;15.23;5.00;;;7.90;99.90;;;;;;5100530;28;20263;-49
2022/01/31 13:33:01;;;;;;;10.45;3.88;;;7.70;99.90;;;;;;5103328;28;20237;-53
2022/01/31 13:35:31;;;;;;;15.90;3.22;;;7.80;99.90;;;;;;5104110;28;20276;-54
2022/01/31 13:38:07;;;;;;;6.30;2.33;;;7.90;99.90;;;;;;5115251;27;20233;-54
2022/01/31 13:40:46;;;;;;;8.52;3.13;;;7.80;99.90;;;;;;5133317;27;20256;-51